CheckWX is a tool to help pilots better visualize weather data.  It is not intended as a substitute for an official pre-flight weather briefing.

15:14:22 UTC

KIJX METAR
Jacksonville Municipal Airport
Jacksonville, Illinois, USA
Current

19 mins ago

KIJX 261455Z AUTO 19003KT 10SM BKN090 20/17 A3008 RMK AO2 T01980172
Observed
May-26 @ 14:55 UTC
Wind
  • 190° at 3 KTS
Visibility
10 SM
Flight Rules
VFR
Cloud Levels
  • Broken at 9,000' AGL
Temperature
20°C / 68°F
Dewpoint
17°C / 63°F
Humidity
83%
Altimeter
30.08" Hg
Pressure
1018.62 hPa
Previous

39 mins ago

KIJX 261435Z AUTO 10003KT 10SM SCT050 SCT070 BKN090 20/17 A3007 RMK AO2 T01960171
Observed
May-26 @ 14:35 UTC
Wind
  • 100° at 3 KTS
Visibility
10 SM
Flight Rules
VFR
Cloud Levels
  • Scattered at 5,000' AGL
  • Scattered at 7,000' AGL
  • Broken at 9,000' AGL
Temperature
20°C / 68°F
Dewpoint
17°C / 63°F
Humidity
83%
Altimeter
30.07" Hg
Pressure
1018.32 hPa
Previous

59 mins ago

KIJX 261415Z AUTO 03003KT 10SM SCT050 BKN070 OVC080 19/17 A3008 RMK AO2 T01930170
Observed
May-26 @ 14:15 UTC
Wind
  • 030° at 3 KTS
Visibility
10 SM
Flight Rules
VFR
Cloud Levels
  • Scattered at 5,000' AGL
  • Broken at 7,000' AGL
  • Overcast at 8,000' AGL
Temperature
19°C / 66°F
Dewpoint
17°C / 63°F
Humidity
88%
Altimeter
30.08" Hg
Pressure
1018.62 hPa